EDDP Airport Information

Runway Information
Runway 08L Length 11811 ft width 148 ft
Elevation 418 ft Threshold 0 ft Heading 86
Runway 26R Length 11811 ft Width 148 ft
Elevation 448 ft Threshold 0 ft Heading 266
Runway 08R Length 11811 ft width 198 ft
Elevation 0 ft Threshold 0 ft Heading 86
Runway 26L Length 11811 ft Width 198 ft
Elevation 0 ft Threshold 0 ft Heading 266
Airport Frequencies
Type APP Name MUNCHEN RA Frequency 124.175 MHZ
Type ATIS Name ATIS Frequency 123.95 MHZ
Type GND Name GND Frequency 121.8 MHZ
Type INFO Name MUNCHEN IN Frequency 125.8 MHZ
Type TWR Name TWR Frequency 121.1 MHZ
Airport Navaids
Type DME Name Leipzig South Frequency 112150 KHZ
Type VOR-DME Name Leipzig Frequency 115850 KHZ
Type DME Name Leipzig North Frequency 113500 KHZ
Type NDB Name Leipzig Frequency 357 KHZ
Type NDB Name Leipzig Frequency 434 KHZ
Type NDB Name Leipzig Frequency 340 KHZ
Airport Weather Information & NOTAM
ADDS - METARS form results

(0859 UTC 15 November 2018)
Data provider http://aviationweather.gov/metar/data/
 
METAR text: EDDP 150850Z 13005KT CAVOK 07/05 Q1029 NOSIG
Conditions at: EDDP (LEIPZIG/SCHKEUDI, DE) observed 0850 UTC 15 November 2018
Temperature: 7.0°C (45°F)
Dewpoint: 5.0°C (41°F) [RH = 87%]
Pressure (altimeter): 30.38 inches Hg (1029.0 mb)
Winds: from the SE (130 degrees) at 6 MPH (5 knots; 2.6 m/s)
Visibility: 6 or more miles (10+ km)
Ceiling: ceiling and visibility are OK
Clouds: unknown
Weather: no significant weather observed at this time

METAR text: EDDP 150820Z 13005KT CAVOK 05/04 Q1029 NOSIG
Conditions at: EDDP (LEIPZIG/SCHKEUDI, DE) observed 0820 UTC 15 November 2018
Temperature: 5.0°C (41°F)
Dewpoint: 4.0°C (39°F) [RH = 93%]
Pressure (altimeter): 30.38 inches Hg (1029.0 mb)
Winds: from the SE (130 degrees) at 6 MPH (5 knots; 2.6 m/s)
Visibility: 6 or more miles (10+ km)
Ceiling: ceiling and visibility are OK
Clouds: unknown
Weather: no significant weather observed at this time

Forecast for: EDDP (LEIPZIG/SCHKEUDI, DE)
Text: TAF EDDP 150500Z 1506/1606 15006KT CAVOK
Forecast period: 0600 to 1200 UTC 15 November 2018
Forecast type: FROM: standard forecast or significant change
Winds: from the SSE (150 degrees) at 7 MPH (6 knots; 3.1 m/s)
Visibility: 6 or more miles 10+ km)
Ceiling: unknown
Clouds: missing
Weather: NSW  (no significant weather)
Text: PROB30
Forecast period: 0600 to 0800 UTC 15 November 2018
Forecast type: TEMPORARY: The following changes expected for less than half the time period
Visibility: 2.49 miles (4.01 km)
Ceiling: unknown
Clouds: missing
Weather: BR  (mist)
Text: TEMPO 1506/1508 4000 BR
Forecast period: 1200 UTC 15 November 2018 to 0600 UTC 16 November 2018
Forecast type: BECOMING: Conditions expected to become as follows by 1400 UTC 15 November 2018
Winds: from the E (90 degrees) at 8 MPH (7 knots; 3.6 m/s)
Visibility: 6 or more miles 10+ km)
Ceiling: unknown
Clouds: missing
Weather: NSW  (no significant weather)